createdAt,value
2023-02-11T00:08:24.982Z,88.74
2023-02-11T00:38:24.838Z,88.67
2023-02-11T01:08:24.740Z,89.09
2023-02-11T01:38:24.640Z,88.64
2023-02-11T02:08:24.495Z,88.67
2023-02-11T02:38:24.343Z,88.41
2023-02-11T03:08:24.334Z,89.4
2023-02-11T03:38:24.230Z,89.96
2023-02-11T04:08:24.221Z,90.1
2023-02-11T04:34:14.465Z,90.85
2023-02-11T04:38:24.032Z,90.85
2023-02-11T05:08:23.940Z,92.19
2023-02-11T05:38:23.829Z,93.55
2023-02-11T06:38:23.794Z,94.64
2023-02-11T07:08:23.673Z,94.63
2023-02-11T07:38:23.667Z,94.86
2023-02-11T08:08:23.528Z,94.86
2023-02-11T08:38:23.437Z,95.46
2023-02-11T09:08:14.094Z,95.96
2023-02-11T09:08:23.360Z,95.96
2023-02-11T09:30:14.073Z,95.78
2023-02-11T09:38:23.309Z,95.78
2023-02-11T10:08:23.193Z,95.33
2023-02-11T10:32:13.984Z,95.41
2023-02-11T10:38:23.127Z,95.41
2023-02-11T11:08:22.915Z,95.08
2023-02-11T11:38:22.875Z,94.73
2023-02-11T12:05:13.643Z,94.28
2023-02-11T12:08:22.741Z,94.28
2023-02-11T12:38:22.742Z,94.26
2023-02-11T13:05:14.456Z,93.92
2023-02-11T13:38:22.593Z,93.4
2023-02-11T14:08:22.527Z,93.4
2023-02-11T14:34:13.441Z,92.76
2023-02-11T14:38:22.409Z,92.76
2023-02-11T15:08:22.226Z,92.65
2023-02-11T15:34:13.241Z,91.59
2023-02-11T15:38:22.216Z,91.59
2023-02-11T16:08:22.163Z,92.06
2023-02-11T16:38:22.050Z,92.32
2023-02-11T17:08:21.939Z,92.35
2023-02-11T17:38:21.792Z,92.92
2023-02-11T18:38:21.621Z,93.34
2023-02-11T19:08:21.558Z,93.47
2023-02-11T19:38:21.494Z,93.94
2023-02-11T20:08:21.264Z,94.08
2023-02-11T20:38:21.198Z,94.18
2023-02-11T21:08:21.183Z,94.53
2023-02-11T22:08:20.905Z,94.8
2023-02-11T22:38:20.734Z,94.86
2023-02-11T23:08:20.596Z,94.92
2023-02-11T23:38:20.483Z,94.86
